createdAt,value
2019-04-23T00:02:53.437Z,12.17
2019-04-23T00:05:38.078Z,15.20
2019-04-23T00:07:58.850Z,11.47
2019-04-23T00:10:28.778Z,13.73
2019-04-23T00:13:12.757Z,12.53
2019-04-23T00:15:45.296Z,14.63
2019-04-23T00:18:10.166Z,14.53
2019-04-23T00:20:39.229Z,12.37
2019-04-23T00:25:49.091Z,11.60
2019-04-23T00:28:16.438Z,11.70
2019-04-23T00:30:55.228Z,10.80
2019-04-23T00:33:20.245Z,14.67
2019-04-23T00:40:58.236Z,11.93
2019-04-23T00:43:27.107Z,13.20
2019-04-23T00:45:59.651Z,13.10
2019-04-23T00:51:11.663Z,11.50
2019-04-23T00:53:28.286Z,12.43
2019-04-23T00:56:19.165Z,9.83
2019-04-23T00:58:33.706Z,11.33
2019-04-23T01:01:00.366Z,11.20
2019-04-23T01:03:25.200Z,13.53
2019-04-23T01:05:58.864Z,9.27
2019-04-23T01:08:33.232Z,12.07
2019-04-23T01:11:08.223Z,13.57
2019-04-23T01:13:44.283Z,16.03
2019-04-23T01:16:09.969Z,11.30
2019-04-23T01:20:59.041Z,12.57
2019-04-23T01:23:53.830Z,10.93
2019-04-23T01:26:38.842Z,13.90
2019-04-23T01:29:12.641Z,10.90
2019-04-23T01:31:49.327Z,11.00
2019-04-23T01:34:20.172Z,17.37
2019-04-23T01:36:41.219Z,13.17
2019-04-23T01:39:17.383Z,11.73
2019-04-23T01:41:48.054Z,11.27
2019-04-23T01:44:25.362Z,15.60
2019-04-23T01:46:51.078Z,11.23
2019-04-23T01:49:25.093Z,15.03
2019-04-23T01:51:55.740Z,9.67
2019-04-23T01:54:17.801Z,12.33
2019-04-23T01:56:47.303Z,17.97
2019-04-23T02:01:53.169Z,11.60
2019-04-23T02:04:24.421Z,14.23
2019-04-23T02:06:51.738Z,12.67
2019-04-23T02:09:26.016Z,13.97
2019-04-23T02:11:55.256Z,13.40
2019-04-23T02:16:55.051Z,8.27
2019-04-23T02:19:23.297Z,13.03
2019-04-23T02:22:23.099Z,9.80
2019-04-23T02:24:47.674Z,11.40
2019-04-23T02:27:13.333Z,11.00
2019-04-23T02:29:58.522Z,10.87
2019-04-23T02:32:19.976Z,13.07
2019-04-23T02:37:35.920Z,17.47
2019-04-23T02:44:56.434Z,11.10
2019-04-23T02:47:25.380Z,10.17
2019-04-23T02:50:09.135Z,12.57
2019-04-23T02:52:24.931Z,10.57
2019-04-23T02:55:29.374Z,17.50
2019-04-23T02:57:18.657Z,16.13
2019-04-23T03:15:11.075Z,14.13
2019-04-23T03:17:36.997Z,9.10
2019-04-23T03:20:14.771Z,11.17
2019-04-23T03:22:58.965Z,11.53
2019-04-23T03:27:56.166Z,10.40
2019-04-23T03:30:51.451Z,12.77
2019-04-23T03:36:21.325Z,11.10
2019-04-23T03:40:50.439Z,10.27
2019-04-23T03:48:09.665Z,12.37
2019-04-23T03:50:38.930Z,13.37
2019-04-23T03:53:27.936Z,24.30
2019-04-23T03:55:37.394Z,23.80
2019-04-23T03:58:07.629Z,26.57
2019-04-23T04:00:37.912Z,23.40
2019-04-23T04:03:26.998Z,25.07
2019-04-23T04:08:16.009Z,16.43
2019-04-23T04:10:49.384Z,13.03
2019-04-23T04:13:20.031Z,15.93
2019-04-23T04:25:49.341Z,31.53
2019-04-23T04:36:07.424Z,16.47
2019-04-23T04:38:38.518Z,12.53
2019-04-23T04:41:04.272Z,11.43
2019-04-23T04:43:31.770Z,16.97
2019-04-23T04:46:15.052Z,10.63
2019-04-23T04:48:23.054Z,12.13
2019-04-23T04:50:49.248Z,16.90
2019-04-23T04:56:06.874Z,12.53
2019-04-23T04:58:32.388Z,10.50
2019-04-23T05:08:46.731Z,12.77
2019-04-23T05:11:21.514Z,16.40
2019-04-23T05:13:43.576Z,10.47
2019-04-23T05:15:58.224Z,21.63
2019-04-23T05:18:41.854Z,10.60
2019-04-23T05:21:21.378Z,11.30
2019-04-23T05:26:21.114Z,10.53
2019-04-23T05:28:55.473Z,10.47
2019-04-23T05:31:18.606Z,10.07
2019-04-23T05:33:46.436Z,11.23
2019-04-23T05:41:27.110Z,11.60
2019-04-23T05:43:46.701Z,11.53
2019-04-23T05:48:52.591Z,11.00
2019-04-23T05:51:33.509Z,9.20
2019-04-23T05:56:21.080Z,10.97
2019-04-23T05:58:52.207Z,12.23
2019-04-23T06:06:37.775Z,9.57
2019-04-23T06:14:06.577Z,8.43
2019-04-23T06:16:36.374Z,8.23
2019-04-23T06:19:07.942Z,11.93
2019-04-23T06:21:44.279Z,8.00
2019-04-23T06:24:13.109Z,9.40
2019-04-23T06:26:40.138Z,11.37
2019-04-23T06:29:19.418Z,14.33
2019-04-23T06:31:40.773Z,12.17
2019-04-23T06:34:12.295Z,12.27
2019-04-23T06:36:38.869Z,11.30
2019-04-23T06:39:00.213Z,11.13
2019-04-23T06:41:41.830Z,15.37
2019-04-23T06:44:25.391Z,10.80
2019-04-23T06:47:01.796Z,12.07
2019-04-23T06:54:40.614Z,12.10
2019-04-23T06:57:09.091Z,11.73
2019-04-23T06:59:41.272Z,9.93
2019-04-23T07:04:37.877Z,10.47
2019-04-23T07:07:25.682Z,11.43
2019-04-23T07:09:26.292Z,12.20
2019-04-23T07:12:05.601Z,8.90
2019-04-23T07:14:44.802Z,16.63
2019-04-23T07:17:03.920Z,9.93
2019-04-23T07:19:37.154Z,12.23
2019-04-23T07:22:16.049Z,11.27
2019-04-23T07:24:41.957Z,9.20
2019-04-23T07:27:18.179Z,13.77
2019-04-23T07:29:56.555Z,13.67
2019-04-23T07:32:15.160Z,11.20
2019-04-23T07:35:00.896Z,9.43
2019-04-23T07:37:24.100Z,11.77
2019-04-23T07:40:19.954Z,11.23
2019-04-23T07:42:54.846Z,12.53
2019-04-23T07:45:24.102Z,9.03
2019-04-23T07:48:11.039Z,13.93
2019-04-23T08:00:45.119Z,12.80
2019-04-23T08:05:55.350Z,8.83
2019-04-23T08:08:11.806Z,8.30
2019-04-23T08:11:10.966Z,9.73
2019-04-23T08:13:22.795Z,8.77
2019-04-23T08:15:53.988Z,8.40
2019-04-23T08:18:29.687Z,11.97
2019-04-23T08:21:10.508Z,10.90
2019-04-23T08:23:52.179Z,11.57
2019-04-23T08:29:03.584Z,13.10
2019-04-23T08:34:05.522Z,10.53
2019-04-23T08:36:34.226Z,8.50
2019-04-23T08:38:57.011Z,13.90
2019-04-23T08:41:33.768Z,13.68
2019-04-23T08:44:15.713Z,7.40
2019-04-23T08:47:50.750Z,9.03
2019-04-23T08:49:35.739Z,9.43
2019-04-23T08:52:18.368Z,11.33
2019-04-23T08:54:48.087Z,12.87
2019-04-23T08:59:44.073Z,10.33
2019-04-23T09:04:43.636Z,10.57
2019-04-23T09:09:45.457Z,8.57
2019-04-23T09:12:14.761Z,10.20
2019-04-23T09:14:42.189Z,13.80
2019-04-23T09:17:13.715Z,13.60
2019-04-23T09:19:56.381Z,10.90
2019-04-23T09:27:23.475Z,18.03
2019-04-23T09:29:51.559Z,13.47
2019-04-23T09:37:40.430Z,13.67
2019-04-23T09:40:10.555Z,15.03
2019-04-23T09:42:38.442Z,41.10
2019-04-23T09:45:12.996Z,20.70
2019-04-23T09:47:58.492Z,16.90
2019-04-23T09:50:26.325Z,11.17
2019-04-23T09:53:07.912Z,18.67
2019-04-23T09:55:27.489Z,8.97
2019-04-23T09:57:56.767Z,13.00
2019-04-23T10:00:33.005Z,12.97
2019-04-23T10:02:49.880Z,11.87
2019-04-23T10:05:16.676Z,12.13
2019-04-23T10:07:44.147Z,18.70
2019-04-23T10:10:01.649Z,14.90
2019-04-23T10:12:32.080Z,20.37
2019-04-23T10:15:09.933Z,19.77
2019-04-23T10:17:31.908Z,13.17
2019-04-23T10:20:02.553Z,15.63
2019-04-23T10:22:34.505Z,15.07
2019-04-23T10:25:03.439Z,18.20
2019-04-23T10:27:32.941Z,30.43
2019-04-23T10:30:01.854Z,17.57
2019-04-23T10:32:31.799Z,14.13
2019-04-23T10:35:10.194Z,34.80
2019-04-23T10:37:40.089Z,34.77
2019-04-23T10:40:05.420Z,21.60
2019-04-23T10:42:35.669Z,12.17
2019-04-23T10:45:20.050Z,28.33
2019-04-23T10:48:27.987Z,23.83
2019-04-23T10:50:50.985Z,21.67
2019-04-23T10:56:00.947Z,16.03
2019-04-23T10:58:30.396Z,13.47
2019-04-23T11:01:00.990Z,13.13
2019-04-23T11:08:31.229Z,32.53
2019-04-23T11:11:07.717Z,21.53
2019-04-23T11:13:37.788Z,21.70
2019-04-23T11:18:55.335Z,15.67
2019-04-23T11:21:13.972Z,11.87
2019-04-23T11:23:43.013Z,15.07
2019-04-23T11:26:14.175Z,13.73
2019-04-23T11:28:44.209Z,19.80
2019-04-23T11:31:23.694Z,18.33
2019-04-23T11:38:56.004Z,18.03
2019-04-23T11:41:25.121Z,12.63
2019-04-23T11:43:53.704Z,14.87
2019-04-23T11:46:41.236Z,10.43
2019-04-23T11:53:54.643Z,13.50
2019-04-23T11:57:04.753Z,14.83
2019-04-23T11:58:47.610Z,15.23
2019-04-23T12:01:49.226Z,15.20
2019-04-23T12:04:24.817Z,16.13
2019-04-23T12:06:52.820Z,11.30
2019-04-23T12:09:34.859Z,16.90
2019-04-23T12:14:36.381Z,17.17
2019-04-23T12:17:13.081Z,23.20
2019-04-23T12:22:10.372Z,14.00
2019-04-23T12:25:03.734Z,13.27
2019-04-23T12:27:20.256Z,12.77
2019-04-23T12:29:37.458Z,15.90
2019-04-23T12:32:42.547Z,12.60
2019-04-23T12:35:12.965Z,18.30
2019-04-23T12:52:41.254Z,15.13
2019-04-23T12:57:40.987Z,16.77
2019-04-23T13:00:14.963Z,15.00
2019-04-23T13:02:46.491Z,24.33
2019-04-23T13:05:12.580Z,21.10
2019-04-23T13:15:15.852Z,20.37
2019-04-23T13:20:19.426Z,25.40
2019-04-23T13:25:26.993Z,26.87
2019-04-23T13:28:02.293Z,19.43
2019-04-23T13:30:31.491Z,20.57
2019-04-23T13:33:02.781Z,20.90
2019-04-23T13:43:14.380Z,21.47
2019-04-23T13:48:13.481Z,25.50
2019-04-23T13:55:42.523Z,50.37
2019-04-23T14:00:55.705Z,16.97
2019-04-23T14:03:21.697Z,14.07
2019-04-23T14:06:18.181Z,21.20
2019-04-23T14:08:47.317Z,22.67
2019-04-23T14:11:19.483Z,35.10
2019-04-23T14:13:49.623Z,23.57
2019-04-23T14:26:32.629Z,17.40
2019-04-23T14:28:44.855Z,40.97
2019-04-23T14:31:10.557Z,35.97
2019-04-23T14:33:52.854Z,52.03
2019-04-23T14:36:17.361Z,71.33
2019-04-23T14:43:58.109Z,173.00
2019-04-23T14:48:52.087Z,91.77
2019-04-23T14:51:39.687Z,72.40
2019-04-23T14:53:55.070Z,59.47
2019-04-23T14:56:20.182Z,45.20
2019-04-23T14:59:01.709Z,70.80
2019-04-23T15:03:49.115Z,181.43
2019-04-23T15:06:27.736Z,91.73
2019-04-23T15:09:04.286Z,167.20
2019-04-23T15:13:55.293Z,35.47
2019-04-23T15:24:17.542Z,15.63
2019-04-23T15:28:56.067Z,12.77
2019-04-23T15:41:53.032Z,19.83
2019-04-23T15:51:52.517Z,14.90
2019-04-23T15:54:22.503Z,17.93
2019-04-23T15:56:51.933Z,15.67
2019-04-23T16:01:40.579Z,21.20
2019-04-23T16:03:53.850Z,19.67
2019-04-23T16:06:27.279Z,19.17
2019-04-23T16:09:16.426Z,23.57
2019-04-23T16:11:51.729Z,15.63
2019-04-23T16:14:35.672Z,20.20
2019-04-23T16:17:04.450Z,15.13
2019-04-23T16:19:43.130Z,34.53
2019-04-23T16:22:16.736Z,17.37
2019-04-23T16:24:49.016Z,19.00
2019-04-23T16:27:11.130Z,18.40
2019-04-23T16:30:00.130Z,26.40
2019-04-23T16:32:31.417Z,17.43
2019-04-23T16:34:54.141Z,16.00
2019-04-23T16:37:20.138Z,13.70
2019-04-23T16:39:56.809Z,15.33
2019-04-23T16:42:23.670Z,12.17
2019-04-23T16:47:24.563Z,25.13
2019-04-23T16:52:26.436Z,21.77
2019-04-23T16:57:43.520Z,22.73
2019-04-23T17:00:15.222Z,23.83
2019-04-23T17:02:24.605Z,20.53
2019-04-23T17:05:01.638Z,19.00
2019-04-23T17:07:21.059Z,13.83
2019-04-23T17:10:08.236Z,13.93
2019-04-23T17:12:17.569Z,12.90
2019-04-23T17:15:03.271Z,20.20
2019-04-23T17:17:26.551Z,20.30
2019-04-23T17:20:06.500Z,19.80
2019-04-23T17:22:31.509Z,31.80
2019-04-23T17:27:41.244Z,22.87
2019-04-23T17:30:09.666Z,21.73
2019-04-23T17:32:35.781Z,25.17
2019-04-23T17:35:17.815Z,26.53
2019-04-23T17:37:57.803Z,18.53
2019-04-23T17:40:39.546Z,22.70
2019-04-23T17:43:04.654Z,34.07
2019-04-23T17:48:16.049Z,31.63
2019-04-23T17:50:53.151Z,21.10
2019-04-23T17:53:29.859Z,48.27
2019-04-23T17:56:01.061Z,46.80
2019-04-23T17:58:23.289Z,53.30
2019-04-23T18:01:03.914Z,26.87
2019-04-23T18:03:25.842Z,23.10
2019-04-23T18:06:04.065Z,19.77
2019-04-23T18:11:09.252Z,12.00
2019-04-23T18:13:27.731Z,18.07
2019-04-23T18:16:06.730Z,14.63
2019-04-23T18:21:23.258Z,7.83
2019-04-23T18:24:13.358Z,8.93
2019-04-23T18:26:51.683Z,10.33
2019-04-23T18:32:01.619Z,9.37
2019-04-23T18:34:44.136Z,11.17
2019-04-23T18:37:09.294Z,8.27
2019-04-23T18:39:54.583Z,10.83
2019-04-23T18:42:34.430Z,14.27
2019-04-23T18:44:56.229Z,12.00
2019-04-23T18:47:37.813Z,8.03
2019-04-23T18:49:54.807Z,8.67
2019-04-23T18:52:32.802Z,10.77
2019-04-23T18:54:53.931Z,13.03
2019-04-23T18:57:30.378Z,10.87
2019-04-23T19:00:07.585Z,10.77
2019-04-23T19:02:42.892Z,17.43
2019-04-23T19:05:14.876Z,8.10
2019-04-23T19:08:00.969Z,10.17
2019-04-23T19:10:28.821Z,12.03
2019-04-23T19:12:48.614Z,10.20
2019-04-23T19:15:33.666Z,9.07
2019-04-23T19:17:50.532Z,8.50
2019-04-23T19:20:45.235Z,11.97
2019-04-23T19:23:19.085Z,10.17
2019-04-23T19:25:28.037Z,12.50
2019-04-23T19:28:10.439Z,10.67
2019-04-23T19:30:49.642Z,10.80
2019-04-23T19:33:31.466Z,11.40
2019-04-23T19:35:59.379Z,12.13
2019-04-23T19:38:13.606Z,11.30
2019-04-23T19:40:56.646Z,12.27
2019-04-23T19:43:12.145Z,10.17
2019-04-23T19:45:49.730Z,11.50
2019-04-23T19:48:25.400Z,8.13
2019-04-23T19:51:04.339Z,11.47
2019-04-23T19:53:26.002Z,10.60
2019-04-23T19:56:04.449Z,13.90
2019-04-23T19:58:25.668Z,8.13
2019-04-23T20:03:41.382Z,10.87
2019-04-23T20:06:16.612Z,13.27
2019-04-23T20:08:34.534Z,11.10
2019-04-23T20:10:58.959Z,9.90
2019-04-23T20:13:37.725Z,11.83
2019-04-23T20:18:42.964Z,10.37
2019-04-23T20:20:58.971Z,10.70
2019-04-23T20:23:55.910Z,15.30
2019-04-23T20:34:07.647Z,17.60
2019-04-23T20:36:25.988Z,13.80
2019-04-23T20:38:55.391Z,12.00
2019-04-23T20:41:26.219Z,9.13
2019-04-23T20:43:55.837Z,12.30
2019-04-23T20:46:43.065Z,12.90
2019-04-23T20:49:09.459Z,10.27
2019-04-23T20:51:41.298Z,10.13
2019-04-23T20:54:18.334Z,9.57
2019-04-23T20:56:51.802Z,10.30
2019-04-23T20:59:12.300Z,13.73
2019-04-23T21:02:07.102Z,11.00
2019-04-23T21:04:37.876Z,16.53
2019-04-23T21:06:56.538Z,11.57
2019-04-23T21:09:45.309Z,13.73
2019-04-23T21:12:04.817Z,11.73
2019-04-23T21:14:51.614Z,13.00
2019-04-23T21:17:05.397Z,14.33
2019-04-23T21:19:40.132Z,14.63
2019-04-23T21:24:43.368Z,12.63
2019-04-23T21:27:20.302Z,14.07
2019-04-23T21:29:53.603Z,13.33
2019-04-23T21:32:24.771Z,16.73
2019-04-23T21:34:55.930Z,16.40
2019-04-23T21:37:42.784Z,19.43
2019-04-23T21:40:32.499Z,19.07
2019-04-23T21:43:01.391Z,18.40
2019-04-23T21:45:35.693Z,16.13
2019-04-23T21:50:37.415Z,20.10
2019-04-23T21:55:39.098Z,12.07
2019-04-23T22:00:36.732Z,14.30
2019-04-23T22:05:44.432Z,18.77
2019-04-23T22:08:03.493Z,15.97
2019-04-23T22:10:31.955Z,15.77
2019-04-23T22:15:45.081Z,13.90
2019-04-23T22:18:06.443Z,17.53
2019-04-23T22:20:43.653Z,13.07
2019-04-23T22:23:12.592Z,14.83
2019-04-23T22:25:48.913Z,12.77
2019-04-23T22:28:10.409Z,13.83
2019-04-23T22:30:49.472Z,15.33
2019-04-23T22:35:49.491Z,15.10
2019-04-23T22:38:18.783Z,13.80
2019-04-23T22:40:49.813Z,13.60
2019-04-23T22:43:20.576Z,13.67
2019-04-23T22:48:29.621Z,16.30
2019-04-23T22:51:03.141Z,16.97
2019-04-23T22:53:13.805Z,18.33
2019-04-23T22:55:57.448Z,17.83
2019-04-23T22:58:19.338Z,15.60
2019-04-23T23:01:12.603Z,17.33
2019-04-23T23:03:36.143Z,17.20
2019-04-23T23:06:12.636Z,18.30
2019-04-23T23:08:43.698Z,18.13
2019-04-23T23:11:08.720Z,16.17
2019-04-23T23:13:53.441Z,18.23
2019-04-23T23:16:07.561Z,18.93
2019-04-23T23:18:59.762Z,16.27
2019-04-23T23:23:40.787Z,19.17
2019-04-23T23:28:42.596Z,24.33
2019-04-23T23:31:13.892Z,25.60
2019-04-23T23:36:12.449Z,24.43
2019-04-23T23:38:50.840Z,26.33
2019-04-23T23:41:24.960Z,26.27
2019-04-23T23:44:20.888Z,26.60
2019-04-23T23:48:48.506Z,26.37
2019-04-23T23:51:23.324Z,30.13
2019-04-23T23:56:15.389Z,27.40
